createdAt,value
2019-02-06T00:02:50.105Z,31.27
2019-02-06T00:05:51.996Z,28.40
2019-02-06T00:08:54.001Z,29.47
2019-02-06T00:11:55.913Z,31.70
2019-02-06T00:14:57.933Z,29.50
2019-02-06T00:17:59.973Z,28.10
2019-02-06T00:21:02.483Z,28.77
2019-02-06T00:24:05.659Z,31.07
2019-02-06T00:27:07.654Z,32.20
2019-02-06T00:30:12.240Z,31.73
2019-02-06T00:33:15.386Z,31.80
2019-02-06T00:36:17.302Z,29.97
2019-02-06T00:39:20.392Z,29.83
2019-02-06T00:42:22.291Z,28.43
2019-02-06T00:45:24.344Z,29.83
2019-02-06T00:48:26.283Z,28.27
2019-02-06T00:51:28.250Z,27.23
2019-02-06T00:54:30.134Z,27.47
2019-02-06T00:57:32.047Z,28.63
2019-02-06T01:00:34.014Z,25.00
2019-02-06T01:03:36.039Z,25.13
2019-02-06T01:06:37.948Z,26.23
2019-02-06T01:09:41.461Z,29.13
2019-02-06T01:12:43.746Z,27.37
2019-02-06T01:15:45.687Z,25.20
2019-02-06T01:18:47.608Z,25.53
2019-02-06T01:21:49.582Z,26.43
2019-02-06T01:24:51.508Z,29.43
2019-02-06T01:27:53.427Z,25.90
2019-02-06T01:30:57.172Z,24.77
2019-02-06T01:33:59.106Z,22.60
2019-02-06T01:37:01.320Z,22.30
2019-02-06T01:40:06.113Z,21.63
2019-02-06T01:43:08.325Z,21.47
2019-02-06T01:46:11.037Z,22.23
2019-02-06T01:49:13.055Z,24.47
2019-02-06T01:52:15.025Z,22.63
2019-02-06T01:55:16.973Z,22.10
2019-02-06T01:58:19.020Z,21.60
2019-02-06T02:01:21.023Z,21.90
2019-02-06T02:04:22.928Z,23.13
2019-02-06T02:07:24.902Z,21.53
2019-02-06T02:10:26.991Z,23.27
2019-02-06T02:13:28.891Z,23.83
2019-02-06T02:16:30.798Z,22.77
2019-02-06T02:19:32.735Z,22.77
2019-02-06T02:22:34.618Z,25.77
2019-02-06T02:25:36.529Z,28.27
2019-02-06T02:28:39.297Z,25.67
2019-02-06T02:31:41.216Z,29.77
2019-02-06T02:34:43.105Z,33.63
2019-02-06T02:37:45.059Z,28.30
2019-02-06T02:40:47.033Z,28.13
2019-02-06T02:43:49.024Z,24.63
2019-02-06T02:46:50.999Z,24.07
2019-02-06T02:49:52.976Z,22.97
2019-02-06T02:52:55.508Z,22.27
2019-02-06T02:55:57.636Z,21.30
2019-02-06T02:58:59.649Z,21.70
2019-02-06T03:02:06.310Z,24.90
2019-02-06T03:05:08.885Z,22.70
2019-02-06T03:08:10.769Z,22.57
2019-02-06T03:11:12.624Z,19.63
2019-02-06T03:14:14.541Z,18.27
2019-02-06T03:17:16.456Z,18.67
2019-02-06T03:20:18.502Z,20.73
2019-02-06T03:23:20.431Z,18.20
2019-02-06T03:26:22.362Z,19.50
2019-02-06T03:29:24.265Z,20.80
2019-02-06T03:32:26.140Z,21.67
2019-02-06T03:35:28.626Z,23.40
2019-02-06T03:38:30.622Z,23.00
2019-02-06T03:41:32.587Z,20.00
2019-02-06T03:44:34.516Z,21.13
2019-02-06T03:47:36.534Z,20.80
2019-02-06T03:50:38.483Z,19.67
2019-02-06T03:53:40.424Z,18.50
2019-02-06T03:56:42.305Z,20.63
2019-02-06T03:59:44.192Z,20.47
2019-02-06T04:02:46.203Z,20.37
2019-02-06T04:05:48.065Z,21.83
2019-02-06T04:08:50.333Z,21.13
2019-02-06T04:11:52.238Z,22.77
2019-02-06T04:14:54.158Z,24.37
2019-02-06T04:17:56.093Z,23.57
2019-02-06T04:20:58.078Z,23.53
2019-02-06T04:23:59.953Z,22.67
2019-02-06T04:27:01.938Z,23.47
2019-02-06T04:30:07.517Z,23.60
2019-02-06T04:33:09.496Z,22.83
2019-02-06T04:36:11.477Z,23.97
2019-02-06T04:39:13.828Z,24.97
2019-02-06T04:42:15.986Z,29.17
2019-02-06T04:45:18.563Z,26.10
2019-02-06T04:48:20.500Z,25.63
2019-02-06T04:51:22.660Z,24.77
2019-02-06T04:54:25.727Z,23.53
2019-02-06T04:57:27.701Z,27.57
2019-02-06T05:00:29.571Z,34.23
2019-02-06T05:03:31.496Z,43.23
2019-02-06T05:06:33.364Z,43.97
2019-02-06T05:09:35.345Z,50.73
2019-02-06T05:12:37.280Z,51.93
2019-02-06T05:15:39.511Z,38.73
2019-02-06T05:18:41.439Z,31.73
2019-02-06T05:21:43.478Z,26.80
2019-02-06T05:24:45.421Z,27.40
2019-02-06T05:27:47.453Z,25.60
2019-02-06T05:30:49.391Z,26.70
2019-02-06T05:33:51.266Z,25.47
2019-02-06T05:36:53.246Z,25.17
2019-02-06T05:39:55.235Z,23.77
2019-02-06T05:42:57.175Z,25.23
2019-02-06T05:45:59.050Z,25.30
2019-02-06T05:49:01.286Z,24.93
2019-02-06T05:52:03.496Z,24.00
2019-02-06T05:55:06.144Z,26.57
2019-02-06T05:58:08.023Z,27.40
2019-02-06T06:01:09.983Z,26.97
2019-02-06T06:04:11.872Z,25.47
2019-02-06T06:07:13.880Z,26.47
2019-02-06T06:10:17.713Z,28.77
2019-02-06T06:13:19.984Z,26.80
2019-02-06T06:16:21.881Z,27.03
2019-02-06T06:19:23.851Z,27.17
2019-02-06T06:22:25.868Z,24.77
2019-02-06T06:25:28.106Z,24.40
2019-02-06T06:28:30.247Z,22.60
2019-02-06T06:31:32.121Z,24.17
2019-02-06T06:34:34.057Z,23.93
2019-02-06T06:37:36.305Z,25.13
2019-02-06T06:40:39.524Z,27.97
2019-02-06T06:43:41.481Z,22.90
2019-02-06T06:46:43.911Z,26.07
2019-02-06T06:49:45.891Z,30.80
2019-02-06T06:52:47.850Z,51.77
2019-02-06T06:55:49.712Z,31.73
2019-02-06T06:58:51.635Z,29.93
2019-02-06T07:01:53.650Z,34.77
2019-02-06T07:04:55.565Z,37.73
2019-02-06T07:08:08.821Z,46.90
2019-02-06T07:11:01.267Z,45.27
2019-02-06T07:14:03.383Z,43.87
2019-02-06T07:17:05.239Z,47.40
2019-02-06T07:20:10.892Z,46.73
2019-02-06T07:23:13.907Z,39.63
2019-02-06T07:26:15.884Z,33.53
2019-02-06T07:29:18.168Z,28.20
2019-02-06T07:32:20.152Z,28.40
2019-02-06T07:35:22.624Z,26.97
2019-02-06T07:38:24.693Z,24.63
2019-02-06T07:41:26.753Z,24.07
2019-02-06T07:44:28.666Z,24.70
2019-02-06T07:47:30.520Z,26.00
2019-02-06T07:50:33.429Z,23.00
2019-02-06T07:53:35.415Z,23.40
2019-02-06T07:56:37.420Z,21.97
2019-02-06T07:59:39.300Z,20.57
2019-02-06T08:02:41.645Z,21.97
2019-02-06T08:05:43.674Z,20.80
2019-02-06T08:08:45.584Z,20.30
2019-02-06T08:11:47.496Z,19.50
2019-02-06T08:14:49.382Z,20.63
2019-02-06T08:17:51.492Z,20.70
2019-02-06T08:20:53.524Z,19.40
2019-02-06T08:23:55.531Z,20.93
2019-02-06T08:26:57.670Z,21.57
2019-02-06T08:29:59.573Z,21.33
2019-02-06T08:33:01.619Z,22.63
2019-02-06T08:36:04.050Z,24.07
2019-02-06T08:39:06.747Z,26.23
2019-02-06T08:42:08.675Z,24.00
2019-02-06T08:45:13.961Z,23.90
2019-02-06T08:48:15.909Z,25.27
2019-02-06T08:51:17.936Z,22.17
2019-02-06T08:54:20.446Z,15.73
2019-02-06T08:57:22.560Z,17.47
2019-02-06T09:00:30.043Z,16.37
2019-02-06T09:03:31.934Z,19.40
2019-02-06T09:06:33.995Z,19.87
2019-02-06T09:09:35.833Z,18.60
2019-02-06T09:12:37.743Z,17.43
2019-02-06T09:15:39.588Z,17.67
2019-02-06T09:18:41.804Z,15.60
2019-02-06T09:21:43.698Z,12.93
2019-02-06T09:24:45.649Z,15.20
2019-02-06T09:27:47.725Z,14.93
2019-02-06T09:30:49.710Z,14.43
2019-02-06T09:33:51.698Z,14.03
2019-02-06T09:36:53.607Z,13.13
2019-02-06T09:39:55.503Z,15.23
2019-02-06T09:42:57.528Z,14.30
2019-02-06T09:45:59.475Z,12.77
2019-02-06T09:49:01.514Z,9.23
2019-02-06T09:52:03.748Z,10.73
2019-02-06T09:55:06.030Z,11.60
2019-02-06T09:58:07.984Z,12.13
2019-02-06T10:01:09.907Z,11.07
2019-02-06T10:04:11.841Z,11.33
2019-02-06T10:07:13.733Z,10.10
2019-02-06T10:10:18.299Z,9.90
2019-02-06T10:13:20.256Z,10.13
2019-02-06T10:16:22.183Z,10.57
2019-02-06T10:19:24.102Z,12.10
2019-02-06T10:22:25.987Z,12.63
2019-02-06T10:25:29.400Z,11.57
2019-02-06T10:28:31.285Z,14.07
2019-02-06T10:31:33.228Z,13.67
2019-02-06T10:34:35.116Z,11.97
2019-02-06T10:37:37.627Z,13.13
2019-02-06T10:40:39.534Z,11.80
2019-02-06T10:43:42.518Z,11.23
2019-02-06T10:46:44.473Z,9.73
2019-02-06T10:49:46.599Z,8.50
2019-02-06T10:52:49.656Z,8.53
2019-02-06T10:55:51.700Z,9.17
2019-02-06T10:58:54.041Z,10.10
2019-02-06T11:01:56.133Z,9.90
2019-02-06T11:04:58.112Z,10.73
2019-02-06T11:08:00.181Z,11.47
2019-02-06T11:11:02.067Z,11.40
2019-02-06T11:14:04.266Z,12.10
2019-02-06T11:17:06.230Z,13.93
2019-02-06T11:20:14.820Z,14.73
2019-02-06T11:23:16.683Z,14.83
2019-02-06T11:26:18.668Z,14.43
2019-02-06T11:29:20.550Z,14.23
2019-02-06T11:32:23.110Z,14.00
2019-02-06T11:35:24.997Z,12.87
2019-02-06T11:38:28.057Z,15.07
2019-02-06T11:41:30.073Z,14.73
2019-02-06T11:44:33.351Z,15.30
2019-02-06T11:47:35.218Z,15.20
2019-02-06T11:50:39.039Z,17.23
2019-02-06T11:53:41.150Z,19.57
2019-02-06T11:56:43.156Z,20.13
2019-02-06T11:59:45.084Z,18.37
2019-02-06T12:02:46.989Z,19.70
2019-02-06T12:05:48.964Z,19.30
2019-02-06T12:08:50.969Z,19.60
2019-02-06T12:11:53.034Z,18.70
2019-02-06T12:14:54.963Z,18.10
2019-02-06T12:17:56.924Z,20.70
2019-02-06T12:20:58.883Z,21.40
2019-02-06T12:24:01.330Z,18.30
2019-02-06T12:27:03.542Z,18.83
2019-02-06T12:30:15.053Z,19.77
2019-02-06T12:33:17.274Z,18.83
2019-02-06T12:36:19.128Z,19.27
2019-02-06T12:39:22.783Z,19.07
2019-02-06T12:42:24.894Z,18.57
2019-02-06T12:45:26.812Z,19.70
2019-02-06T12:48:29.202Z,19.93
2019-02-06T12:51:31.582Z,19.10
2019-02-06T12:54:33.640Z,20.27
2019-02-06T12:57:37.442Z,19.97
2019-02-06T13:00:41.644Z,20.00
2019-02-06T13:03:43.682Z,20.13
2019-02-06T13:06:47.885Z,21.73
2019-02-06T13:09:50.702Z,20.13
2019-02-06T13:12:52.731Z,19.77
2019-02-06T13:15:54.618Z,17.40
2019-02-06T13:18:56.546Z,18.20
2019-02-06T13:21:58.431Z,18.23
2019-02-06T13:25:00.377Z,17.63
2019-02-06T13:28:03.117Z,16.33
2019-02-06T13:31:05.595Z,15.93
2019-02-06T13:34:07.681Z,17.27
2019-02-06T13:37:09.604Z,15.33
2019-02-06T13:40:16.992Z,17.73
2019-02-06T13:43:18.990Z,16.73
2019-02-06T13:46:20.974Z,17.90
2019-02-06T13:49:22.831Z,18.00
2019-02-06T13:52:28.204Z,17.27
2019-02-06T13:55:31.431Z,16.07
2019-02-06T13:58:33.482Z,15.30
2019-02-06T14:01:37.217Z,14.47
2019-02-06T14:04:42.231Z,15.40
2019-02-06T14:07:44.114Z,17.60
2019-02-06T14:10:58.452Z,17.43
2019-02-06T14:13:54.719Z,18.33
2019-02-06T14:16:58.253Z,18.20
2019-02-06T14:20:01.369Z,19.53
2019-02-06T14:23:16.160Z,19.73
2019-02-06T14:26:27.828Z,20.23
2019-02-06T14:29:42.739Z,20.27
2019-02-06T14:33:01.156Z,18.57
2019-02-06T14:36:33.559Z,19.03
2019-02-06T14:39:43.643Z,18.20
2019-02-06T14:42:55.581Z,20.10
2019-02-06T14:46:29.159Z,18.37
2019-02-06T14:49:40.911Z,19.10
2019-02-06T14:52:50.085Z,19.63
2019-02-06T14:56:13.874Z,21.13
2019-02-06T14:59:27.646Z,21.67
2019-02-06T15:02:42.520Z,30.60
2019-02-06T15:06:03.053Z,26.73
2019-02-06T15:09:42.805Z,23.23
2019-02-06T15:12:53.981Z,20.63
2019-02-06T15:15:59.797Z,23.33
2019-02-06T15:19:11.663Z,26.40
2019-02-06T15:22:37.194Z,25.53
2019-02-06T15:25:42.712Z,25.00
2019-02-06T15:29:00.256Z,27.10
2019-02-06T15:32:14.604Z,22.30
2019-02-06T15:35:32.620Z,20.60
2019-02-06T15:38:41.141Z,21.03
2019-02-06T15:41:58.976Z,18.00
2019-02-06T15:45:16.710Z,18.40
2019-02-06T15:48:28.515Z,20.97
2019-02-06T15:51:43.079Z,18.43
2019-02-06T15:55:13.894Z,18.70
2019-02-06T15:58:22.455Z,19.80
2019-02-06T16:01:43.309Z,28.07
2019-02-06T16:05:05.572Z,26.73
2019-02-06T16:08:13.932Z,22.03
2019-02-06T16:11:42.386Z,21.87
2019-02-06T16:14:43.899Z,21.73
2019-02-06T16:18:01.712Z,23.07
2019-02-06T16:21:23.725Z,22.50
2019-02-06T16:24:34.955Z,25.70
2019-02-06T16:27:43.490Z,23.20
2019-02-06T16:30:58.084Z,28.37
2019-02-06T16:34:28.102Z,24.73
2019-02-06T16:37:46.924Z,27.73
2019-02-06T16:41:01.276Z,27.20
2019-02-06T16:44:40.514Z,32.00
2019-02-06T16:47:58.328Z,30.57
2019-02-06T16:51:08.272Z,29.70
2019-02-06T16:54:14.251Z,34.70
2019-02-06T16:57:32.838Z,42.50
2019-02-06T17:00:50.514Z,43.43
2019-02-06T17:04:14.299Z,50.27
2019-02-06T17:07:25.735Z,46.77
2019-02-06T17:10:55.541Z,37.93
2019-02-06T17:14:29.996Z,38.77
2019-02-06T17:17:50.379Z,35.53
2019-02-06T17:21:18.339Z,38.37
2019-02-06T17:24:45.179Z,39.37
2019-02-06T17:28:17.472Z,45.80
2019-02-06T17:31:29.796Z,38.50
2019-02-06T17:34:53.127Z,37.37
2019-02-06T17:38:17.279Z,42.97
2019-02-06T17:41:27.267Z,36.57
2019-02-06T17:45:08.521Z,38.27
2019-02-06T17:48:31.130Z,32.37
2019-02-06T17:52:00.323Z,31.47
2019-02-06T17:55:18.489Z,34.67
2019-02-06T17:58:20.461Z,35.67
2019-02-06T18:01:26.218Z,35.43
2019-02-06T18:04:29.277Z,35.53
2019-02-06T18:07:31.792Z,33.90
2019-02-06T18:10:34.093Z,33.73
2019-02-06T18:13:37.346Z,32.53
2019-02-06T18:16:39.971Z,31.97
2019-02-06T18:19:42.319Z,33.30
2019-02-06T18:22:44.287Z,34.87
2019-02-06T18:25:46.592Z,35.97
2019-02-06T18:28:52.947Z,38.63
2019-02-06T18:31:57.071Z,42.40
2019-02-06T18:34:58.963Z,41.17
2019-02-06T18:38:03.270Z,42.60
2019-02-06T18:41:05.858Z,46.07
2019-02-06T18:44:08.292Z,46.23
2019-02-06T18:47:10.614Z,42.63
2019-02-06T18:50:31.146Z,42.73
2019-02-06T18:53:33.631Z,40.60
2019-02-06T18:56:37.234Z,40.73
2019-02-06T18:59:39.823Z,44.63
2019-02-06T19:02:42.290Z,41.07
2019-02-06T19:05:45.760Z,39.63
2019-02-06T19:08:48.274Z,38.87
2019-02-06T19:11:54.257Z,39.43
2019-02-06T19:14:58.870Z,35.87
2019-02-06T19:18:00.766Z,36.43
2019-02-06T19:21:17.314Z,36.80
2019-02-06T19:24:21.469Z,36.63
2019-02-06T19:27:24.493Z,38.23
2019-02-06T19:30:32.493Z,37.53
2019-02-06T19:33:34.446Z,42.20
2019-02-06T19:36:38.250Z,43.93
2019-02-06T19:39:40.394Z,43.10
2019-02-06T19:42:42.940Z,43.07
2019-02-06T19:45:44.968Z,41.80
2019-02-06T19:48:49.074Z,39.47
2019-02-06T19:51:51.366Z,39.50
2019-02-06T19:54:55.113Z,39.17
2019-02-06T19:57:59.311Z,42.47
2019-02-06T20:01:03.920Z,40.67
2019-02-06T20:04:08.273Z,45.10
2019-02-06T20:07:10.688Z,43.47
2019-02-06T20:10:20.290Z,44.60
2019-02-06T20:13:25.163Z,41.40
2019-02-06T20:16:27.803Z,41.80
2019-02-06T20:19:29.815Z,37.67
2019-02-06T20:22:32.547Z,42.77
2019-02-06T20:25:37.138Z,40.23
2019-02-06T20:28:39.187Z,39.67
2019-02-06T20:31:41.165Z,36.60
2019-02-06T20:34:43.494Z,36.37
2019-02-06T20:37:48.704Z,35.47
2019-02-06T20:40:51.056Z,36.33
2019-02-06T20:43:52.921Z,36.97
2019-02-06T20:46:58.811Z,29.97
2019-02-06T20:50:05.615Z,33.50
2019-02-06T20:53:09.845Z,34.30
2019-02-06T20:56:11.771Z,35.63
2019-02-06T20:59:14.098Z,32.40
2019-02-06T21:02:17.108Z,33.30
2019-02-06T21:05:19.234Z,36.87
2019-02-06T21:08:22.557Z,33.47
2019-02-06T21:11:24.829Z,35.13
2019-02-06T21:14:26.749Z,33.33
2019-02-06T21:17:30.524Z,36.57
2019-02-06T21:20:36.005Z,38.53
2019-02-06T21:23:38.001Z,41.23
2019-02-06T21:26:44.513Z,45.57
2019-02-06T21:29:47.199Z,44.33
2019-02-06T21:32:50.960Z,46.83
2019-02-06T21:35:54.757Z,49.80
2019-02-06T21:38:56.696Z,44.60
2019-02-06T21:42:02.300Z,44.57
2019-02-06T21:45:08.942Z,45.30
2019-02-06T21:48:11.359Z,44.40
2019-02-06T21:51:13.789Z,44.23
2019-02-06T21:54:15.754Z,43.03
2019-02-06T21:57:17.664Z,50.50
2019-02-06T22:00:31.987Z,46.40
2019-02-06T22:03:33.931Z,46.43
2019-02-06T22:06:35.962Z,41.27
2019-02-06T22:09:38.018Z,42.73
2019-02-06T22:12:40.008Z,48.33
2019-02-06T22:15:41.934Z,48.07
2019-02-06T22:18:44.134Z,43.90
2019-02-06T22:21:46.114Z,45.17
2019-02-06T22:24:48.077Z,43.03
2019-02-06T22:27:50.782Z,48.13
2019-02-06T22:30:53.209Z,49.27
2019-02-06T22:33:55.176Z,53.57
2019-02-06T22:36:57.039Z,49.27
2019-02-06T22:39:58.980Z,48.77
2019-02-06T22:43:00.928Z,45.83
2019-02-06T22:46:02.872Z,42.37
2019-02-06T22:49:04.797Z,41.37
2019-02-06T22:52:06.938Z,43.87
2019-02-06T22:55:10.843Z,42.73
2019-02-06T22:58:12.731Z,39.27
2019-02-06T23:01:18.451Z,44.83
2019-02-06T23:04:20.377Z,36.70
2019-02-06T23:07:22.476Z,46.00
2019-02-06T23:10:25.017Z,49.83
2019-02-06T23:13:26.955Z,49.77
2019-02-06T23:16:28.927Z,47.37
2019-02-06T23:19:30.873Z,49.70
2019-02-06T23:22:32.913Z,48.13
2019-02-06T23:25:34.869Z,50.20
2019-02-06T23:28:36.827Z,43.60
2019-02-06T23:31:38.866Z,49.23
2019-02-06T23:34:40.831Z,49.70
2019-02-06T23:37:42.771Z,40.77
2019-02-06T23:40:44.772Z,47.00
2019-02-06T23:43:46.679Z,49.20
2019-02-06T23:46:48.628Z,46.40
2019-02-06T23:49:50.556Z,44.33
2019-02-06T23:52:52.887Z,54.53
2019-02-06T23:55:54.792Z,49.40
2019-02-06T23:58:58.635Z,51.33
